Time;durP1;ratioP1;P1;durP2;ratioP2;P2;SDS_P1;SDS_P2;PMS_P1;PMS_P2;Temp;Humidity;BMP_temperature;BMP_pressure;BME280_temperature;BME280_humidity;BME280_pressure;Samples;Min_cycle;Max_cycle;Signal;HPM_P1;HPM_P2
2022/09/04 00:02:49;;;;;;;12.40;9.00;;;17.10;99.90;;;;;;5055654;28;20227;-64
2022/09/04 00:05:31;;;;;;;13.60;10.30;;;17.10;99.90;;;;;;5081759;28;20194;-64
2022/09/04 00:08:16;;;;;;;5.03;3.93;;;17.00;99.90;;;;;;5064218;28;20209;-64
2022/09/04 00:10:52;;;;;;;8.50;6.00;;;17.00;99.90;;;;;;5077888;28;20210;-63
2022/09/04 00:13:44;;;;;;;3.93;3.50;;;17.00;99.90;;;;;;5065842;28;20228;-64
2022/09/04 00:16:20;;;;;;;6.40;2.40;;;17.00;99.90;;;;;;5070631;28;20221;-65
2022/09/04 00:19:19;;;;;;;2.47;2.10;;;16.90;99.90;;;;;;5063652;28;20271;-64
2022/09/04 00:22:01;;;;;;;4.90;3.33;;;16.90;99.90;;;;;;5033692;28;20704;-64
2022/09/04 00:24:35;;;;;;;5.70;3.10;;;16.80;99.90;;;;;;5082464;28;20202;-65
2022/09/04 00:27:20;;;;;;;6.23;2.20;;;16.80;99.90;;;;;;5061086;28;20181;-65
2022/09/04 00:29:55;;;;;;;4.10;2.13;;;16.70;99.90;;;;;;5082369;28;20293;-64
2022/09/04 00:32:37;;;;;;;4.10;2.63;;;16.70;99.90;;;;;;5086511;28;20221;-64
2022/09/04 00:35:43;;;;;;;5.13;2.70;;;16.70;99.90;;;;;;5067876;28;20267;-63
2022/09/04 00:38:40;;;;;;;3.47;2.50;;;16.70;99.90;;;;;;5062563;28;20694;-64
2022/09/04 00:41:31;;;;;;;5.07;3.87;;;16.70;99.90;;;;;;5065930;28;20206;-64
2022/09/04 00:44:36;;;;;;;7.40;5.00;;;16.80;99.90;;;;;;5078514;28;20187;-64
2022/09/04 00:47:21;;;;;;;6.57;5.13;;;16.90;99.90;;;;;;5072539;28;20237;-64
2022/09/04 00:50:30;;;;;;;8.80;7.80;;;16.90;99.90;;;;;;5074633;28;20334;-65
2022/09/04 00:53:36;;;;;;;8.23;5.87;;;17.00;99.90;;;;;;5081219;28;20193;-64
2022/09/04 00:56:24;;;;;;;4.13;2.90;;;17.00;99.90;;;;;;5058921;28;20195;-64
2022/09/04 00:59:28;;;;;;;10.10;8.17;;;17.10;99.90;;;;;;5063153;28;20713;-64
2022/09/04 01:02:07;;;;;;;4.43;3.20;;;17.00;99.90;;;;;;5078646;28;21402;-64
2022/09/04 01:04:42;;;;;;;10.45;6.43;;;17.00;99.90;;;;;;5059389;28;20321;-64
2022/09/04 01:07:34;;;;;;;5.30;2.97;;;17.00;99.90;;;;;;5068052;28;20198;-64
2022/09/04 01:10:24;;;;;;;4.77;3.43;;;16.90;99.90;;;;;;5059623;28;20717;-63
2022/09/04 01:13:00;;;;;;;4.87;4.27;;;16.80;99.90;;;;;;5077192;28;20668;-64
2022/09/04 01:15:38;;;;;;;4.10;2.10;;;16.80;99.90;;;;;;5060471;28;20256;-65
2022/09/04 01:18:21;;;;;;;3.27;2.07;;;16.80;99.90;;;;;;5061345;28;20194;-64
2022/09/04 01:21:29;;;;;;;2.20;1.90;;;16.80;99.90;;;;;;5056911;28;20186;-64
2022/09/04 01:24:15;;;;;;;2.70;1.93;;;16.70;99.90;;;;;;5063203;28;20229;-64
2022/09/04 01:26:46;;;;;;;6.07;3.17;;;16.70;99.90;;;;;;5077175;28;20206;-65
2022/09/04 01:29:22;;;;;;;8.47;3.10;;;16.60;99.90;;;;;;5064354;28;20701;-64
2022/09/04 01:31:53;;;;;;;6.77;2.83;;;16.70;99.90;;;;;;5061557;28;20645;-63
2022/09/04 01:34:34;;;;;;;4.27;2.60;;;16.80;99.90;;;;;;5079387;28;20179;-63
2022/09/04 01:37:11;;;;;;;3.90;2.43;;;16.70;99.90;;;;;;5081465;28;20276;-63
2022/09/04 01:39:40;;;;;;;2.47;2.27;;;16.70;99.90;;;;;;5065263;28;20194;-63
2022/09/04 01:42:16;;;;;;;2.57;2.20;;;16.80;99.90;;;;;;5080091;28;20194;-65
2022/09/04 01:44:43;;;;;;;2.65;2.00;;;16.70;99.90;;;;;;5083427;28;20197;-64
2022/09/04 01:47:51;;;;;;;6.90;2.53;;;16.60;99.90;;;;;;5063999;28;20230;-64
2022/09/04 01:50:23;;;;;;;2.53;2.00;;;16.40;99.90;;;;;;5000651;28;20213;-64
2022/09/04 01:53:12;;;;;;;5.20;2.17;;;16.50;99.90;;;;;;4999947;28;20253;-64
2022/09/04 01:56:06;;;;;;;4.80;2.50;;;16.50;99.90;;;;;;5037768;28;20707;-64
2022/09/04 01:59:22;;;;;;;2.97;2.37;;;16.50;99.90;;;;;;5060184;28;20725;-64
2022/09/04 02:01:49;;;;;;;6.93;3.43;;;16.60;99.90;;;;;;5027129;28;20199;-64
2022/09/04 02:04:30;;;;;;;4.00;2.20;;;16.50;99.90;;;;;;5080259;28;20530;-64
2022/09/04 02:07:19;;;;;;;3.63;2.47;;;16.40;99.90;;;;;;5058201;28;20198;-63
2022/09/04 02:09:53;;;;;;;4.97;2.30;;;16.30;99.90;;;;;;5074734;28;20223;-63
2022/09/04 02:12:36;;;;;;;2.37;2.00;;;16.30;99.90;;;;;;5060379;28;20240;-64
2022/09/04 02:15:16;;;;;;;3.63;2.07;;;16.10;99.90;;;;;;5056405;28;20226;-64
2022/09/04 02:18:06;;;;;;;2.93;2.53;;;16.10;99.90;;;;;;5058370;28;20198;-66
2022/09/04 02:20:33;;;;;;;2.70;1.97;;;16.10;99.90;;;;;;5078576;28;20202;-65
2022/09/04 02:23:14;;;;;;;5.80;2.10;;;16.20;99.90;;;;;;5063539;28;20244;-63
2022/09/04 02:25:49;;;;;;;3.53;2.30;;;16.30;99.90;;;;;;5079242;28;20279;-63
2022/09/04 02:28:22;;;;;;;5.27;2.20;;;16.30;99.90;;;;;;5059941;28;20275;-63
2022/09/04 02:31:23;;;;;;;2.80;2.43;;;16.30;99.90;;;;;;5047885;28;20385;-65
2022/09/04 02:34:17;;;;;;;3.20;2.20;;;16.20;99.90;;;;;;5077884;28;20309;-65
2022/09/04 02:36:58;;;;;;;2.50;2.30;;;15.60;1.00;;;;;;5083175;28;20734;-65
2022/09/04 02:39:48;;;;;;;4.90;2.43;;;15.60;1.00;;;;;;5059560;28;20199;-62
2022/09/04 02:42:33;;;;;;;4.03;2.20;;;15.70;1.00;;;;;;5054794;28;20206;-63
2022/09/04 02:45:23;;;;;;;3.97;2.00;;;15.70;1.00;;;;;;5076085;28;20654;-62
2022/09/04 02:47:59;;;;;;;3.80;2.10;;;15.80;1.00;;;;;;5062663;28;20264;-63
2022/09/04 02:50:53;;;;;;;3.47;2.40;;;15.90;1.00;;;;;;5058317;28;20249;-63
2022/09/04 02:53:51;;;;;;;5.97;2.23;;;15.90;99.90;;;;;;5060615;28;20190;-63
2022/09/04 02:56:55;;;;;;;2.57;2.13;;;15.90;99.90;;;;;;5061860;28;20672;-64
2022/09/04 02:59:36;;;;;;;3.07;2.40;;;15.60;1.00;;;;;;5078170;28;20232;-63
2022/09/04 03:02:10;;;;;;;5.07;2.40;;;15.60;1.00;;;;;;5059975;28;20501;-63
2022/09/04 03:05:01;;;;;;;4.77;2.20;;;15.60;1.00;;;;;;5083687;28;20691;-64
2022/09/04 03:07:35;;;;;;;3.00;2.70;;;15.50;1.00;;;;;;5017585;28;20202;-64
2022/09/04 03:10:14;;;;;;;4.40;2.70;;;15.50;1.00;;;;;;5076739;28;20201;-64
2022/09/04 03:13:10;;;;;;;2.60;2.40;;;15.40;1.00;;;;;;5077000;28;20776;-63
2022/09/04 03:15:57;;;;;;;3.27;2.43;;;15.40;1.00;;;;;;5060937;28;20222;-63
2022/09/04 03:18:52;;;;;;;4.57;2.60;;;15.40;1.00;;;;;;5077370;28;20194;-63
2022/09/04 03:21:33;;;;;;;4.53;2.80;;;15.50;1.00;;;;;;5058479;28;20202;-63
2022/09/04 03:24:06;;;;;;;4.73;2.53;;;15.50;1.00;;;;;;5054875;28;20241;-63
2022/09/04 03:26:47;;;;;;;3.53;2.77;;;15.60;1.00;;;;;;5062408;28;20190;-63
2022/09/04 03:29:14;;;;;;;4.70;2.83;;;15.70;1.00;;;;;;5044297;28;20548;-63
2022/09/04 03:32:03;;;;;;;4.27;2.90;;;15.70;1.00;;;;;;5061012;28;20302;-64
2022/09/04 03:35:07;;;;;;;2.17;1.97;;;15.60;1.00;;;;;;5056465;28;20692;-65
2022/09/04 03:37:59;;;;;;;3.90;2.53;;;15.60;1.00;;;;;;5064267;28;20783;-64
2022/09/04 03:41:05;;;;;;;3.77;3.03;;;15.70;1.00;;;;;;5057831;28;20676;-64
2022/09/04 03:43:42;;;;;;;2.97;2.67;;;15.80;1.00;;;;;;5075805;28;20204;-65
2022/09/04 03:46:17;;;;;;;3.50;3.20;;;15.80;1.00;;;;;;5077123;28;20194;-64
2022/09/04 03:49:21;;;;;;;2.37;2.17;;;15.30;1.00;;;;;;5077872;28;20265;-64
2022/09/04 03:51:58;;;;;;;4.23;2.73;;;15.40;1.00;;;;;;5071808;28;20866;-65
2022/09/04 03:54:46;;;;;;;3.27;2.60;;;15.40;1.00;;;;;;5075898;28;20202;-62
2022/09/04 03:57:22;;;;;;;2.80;2.60;;;15.30;1.00;;;;;;5059675;28;20211;-64
2022/09/04 03:59:52;;;;;;;3.80;2.80;;;15.20;1.00;;;;;;5059799;28;20208;-64
2022/09/04 04:02:42;;;;;;;3.67;2.70;;;15.10;1.00;;;;;;5079951;28;20206;-62
2022/09/04 04:05:35;;;;;;;3.87;3.37;;;15.00;1.00;;;;;;5076578;28;20239;-62
2022/09/04 04:08:09;;;;;;;5.03;3.10;;;14.70;1.00;;;;;;5043736;28;20293;-62
2022/09/04 04:11:14;;;;;;;3.77;3.27;;;14.50;1.00;;;;;;5045221;28;20225;-63
2022/09/04 04:14:20;;;;;;;5.80;3.57;;;14.50;1.00;;;;;;5061735;28;20187;-64
2022/09/04 04:17:07;;;;;;;8.00;3.63;;;14.30;1.00;;;;;;5060035;28;20732;-62
2022/09/04 04:20:03;;;;;;;5.40;3.20;;;14.20;27.30;;;;;;5017626;28;20217;-63
2022/09/04 04:23:07;;;;;;;4.33;3.50;;;14.40;1.00;;;;;;5055478;28;20218;-62
2022/09/04 04:25:47;;;;;;;4.87;3.10;;;14.50;1.00;;;;;;5061128;28;20226;-62
2022/09/04 04:28:26;;;;;;;6.43;3.23;;;14.60;1.00;;;;;;5079921;28;20622;-62
2022/09/04 04:31:01;;;;;;;5.97;3.03;;;14.60;1.00;;;;;;5079953;28;20202;-64
2022/09/04 04:34:17;;;;;;;3.77;3.17;;;14.70;1.00;;;;;;5060828;28;20206;-63
2022/09/04 04:37:01;;;;;;;4.87;2.97;;;14.70;1.00;;;;;;5010790;28;20281;-63
2022/09/04 04:39:40;;;;;;;3.20;2.57;;;14.80;1.00;;;;;;5061653;28;20554;-62
2022/09/04 04:42:27;;;;;;;4.73;2.77;;;14.90;1.00;;;;;;5079615;28;20225;-63
2022/09/04 04:47:55;;;;;;;3.43;2.63;;;14.90;1.00;;;;;;5077884;28;20230;-62
2022/09/04 04:50:44;;;;;;;4.60;2.97;;;14.80;1.00;;;;;;5082079;28;20217;-62
2022/09/04 04:53:24;;;;;;;4.17;2.73;;;14.90;1.00;;;;;;5078119;28;20206;-63
2022/09/04 04:56:18;;;;;;;3.70;3.17;;;14.90;1.00;;;;;;5079083;28;20201;-62
2022/09/04 04:58:52;;;;;;;6.20;2.90;;;14.70;1.00;;;;;;5082332;28;20248;-62
2022/09/04 05:01:47;;;;;;;3.43;2.80;;;14.70;1.00;;;;;;5064846;28;20785;-63
2022/09/04 05:04:24;;;;;;;6.10;2.77;;;14.70;1.00;;;;;;5084909;28;20190;-65
2022/09/04 05:06:58;;;;;;;3.50;2.63;;;14.80;1.00;;;;;;5082782;28;20206;-63
2022/09/04 05:09:49;;;;;;;4.00;2.73;;;15.00;1.00;;;;;;5063479;28;20197;-63
2022/09/04 05:12:54;;;;;;;3.47;3.13;;;15.00;1.00;;;;;;5043151;28;20213;-62
2022/09/04 05:15:36;;;;;;;16.23;9.03;;;14.90;1.00;;;;;;5001328;28;20839;-63
2022/09/04 05:18:48;;;;;;;13.63;6.67;;;14.80;1.00;;;;;;4980969;28;20679;-63
2022/09/04 05:21:34;;;;;;;3.97;2.80;;;14.70;1.00;;;;;;5070888;28;20226;-63
2022/09/04 05:24:05;;;;;;;9.23;4.87;;;14.80;1.00;;;;;;5067630;28;20275;-64
2022/09/04 05:26:45;;;;;;;5.47;3.73;;;14.70;1.00;;;;;;5062468;28;20210;-64
2022/09/04 05:29:29;;;;;;;9.00;6.37;;;14.60;1.00;;;;;;5063839;28;20195;-63
2022/09/04 05:32:08;;;;;;;6.17;3.30;;;14.70;1.00;;;;;;5080929;28;20207;-64
2022/09/04 05:34:56;;;;;;;4.47;3.33;;;14.80;1.00;;;;;;5059271;28;20484;-63
2022/09/04 05:37:51;;;;;;;3.93;3.20;;;15.00;1.00;;;;;;5060296;28;20190;-66
2022/09/04 05:40:26;;;;;;;5.73;4.10;;;15.00;1.00;;;;;;5078145;28;20206;-64
2022/09/04 05:43:01;;;;;;;5.27;3.40;;;15.00;1.00;;;;;;5074404;28;20691;-63
2022/09/04 05:45:46;;;;;;;4.87;3.47;;;15.20;1.00;;;;;;5083600;28;20267;-63
2022/09/04 05:48:28;;;;;;;7.60;3.00;;;15.40;1.00;;;;;;5054412;28;20329;-63
2022/09/04 05:51:17;;;;;;;5.53;3.10;;;15.60;1.00;;;;;;5055404;28;20679;-64
2022/09/04 05:53:56;;;;;;;3.77;2.90;;;15.70;1.00;;;;;;5040267;28;20269;-66
2022/09/04 05:56:52;;;;;;;4.57;3.00;;;15.90;1.00;;;;;;5056921;28;20536;-66
2022/09/04 05:59:33;;;;;;;5.15;2.70;;;18.50;99.90;;;;;;5044424;28;20245;-64
2022/09/04 06:02:09;;;;;;;3.35;2.60;;;21.00;46.10;;;;;;5050868;28;20211;-63
2022/09/04 06:05:27;;;;;;;2.92;2.38;;;22.90;1.00;;;;;;5058943;28;20191;-65
2022/09/04 06:08:00;;;;;;;3.47;2.30;;;23.20;1.00;;;;;;5026969;28;20215;-62
2022/09/04 06:10:27;;;;;;;3.45;2.47;;;23.80;1.00;;;;;;5041085;28;20214;-63
2022/09/04 06:13:36;;;;;;;2.97;2.15;;;25.10;1.00;;;;;;5042042;28;20226;-63
2022/09/04 06:16:28;;;;;;;2.45;2.03;;;24.80;1.00;;;;;;5057427;28;20207;-63
2022/09/04 06:19:10;;;;;;;3.03;2.67;;;25.10;1.00;;;;;;5058553;28;20932;-65
2022/09/04 06:22:04;;;;;;;3.65;2.20;;;26.40;1.00;;;;;;5059278;28;20628;-63
2022/09/04 06:24:31;;;;;;;3.55;1.92;;;27.40;1.00;;;;;;5056434;28;20685;-63
2022/09/04 06:27:34;;;;;;;3.30;2.20;;;28.70;1.00;;;;;;5044311;28;20286;-64
2022/09/04 06:30:05;;;;;;;4.13;2.17;;;27.60;1.00;;;;;;5061800;28;20203;-65
2022/09/04 06:33:05;;;;;;;2.58;2.08;;;28.70;1.00;;;;;;5060259;28;20191;-65
2022/09/04 06:35:58;;;;;;;4.43;2.50;;;28.80;1.00;;;;;;5056979;28;20214;-63
2022/09/04 06:38:48;;;;;;;5.07;2.00;;;29.00;1.00;;;;;;5052529;28;20220;-64
2022/09/04 06:41:21;;;;;;;4.85;2.55;;;30.60;1.00;;;;;;5028353;28;20206;-64
2022/09/04 06:44:25;;;;;;;2.95;1.90;;;30.80;1.00;;;;;;5044506;28;20218;-65
2022/09/04 06:47:15;;;;;;;4.30;2.00;;;31.70;1.00;;;;;;5062517;28;20245;-64
2022/09/04 06:49:57;;;;;;;14.02;8.50;;;31.80;1.00;;;;;;5012677;28;20222;-64
2022/09/04 06:52:37;;;;;;;10.32;6.82;;;29.10;1.00;;;;;;5038357;28;20906;-64
2022/09/04 06:55:32;;;;;;;5.57;4.10;;;28.60;1.00;;;;;;5063928;28;20189;-62
2022/09/04 06:57:59;;;;;;;5.35;2.22;;;28.00;1.00;;;;;;5042473;28;20257;-63
2022/09/04 07:00:35;;;;;;;3.90;1.98;;;29.10;1.00;;;;;;5062788;28;20186;-63
2022/09/04 07:03:33;;;;;;;3.20;2.00;;;28.40;1.00;;;;;;5048033;28;20257;-62
2022/09/04 07:06:38;;;;;;;3.10;2.20;;;27.80;1.00;;;;;;5030959;28;20203;-62
2022/09/04 07:09:17;;;;;;;2.95;2.45;;;29.80;1.00;;;;;;5062212;28;20249;-62
2022/09/04 07:12:14;;;;;;;5.75;2.42;;;29.60;1.00;;;;;;5022073;28;20684;-64
2022/09/04 07:14:47;;;;;;;3.97;2.15;;;27.40;1.00;;;;;;5059925;28;20195;-63
2022/09/04 07:17:39;;;;;;;4.60;2.20;;;26.00;1.00;;;;;;5058975;28;20553;-64
2022/09/04 07:20:24;;;;;;;3.45;2.15;;;27.10;1.00;;;;;;5040426;28;20230;-63
2022/09/04 07:23:22;;;;;;;2.53;2.15;;;27.90;1.00;;;;;;5057942;28;20226;-64
2022/09/04 07:26:30;;;;;;;3.90;2.25;;;29.60;1.00;;;;;;5045533;28;20254;-63
2022/09/04 07:29:21;;;;;;;2.78;2.30;;;28.10;1.00;;;;;;4972355;28;20652;-65
2022/09/04 07:32:18;;;;;;;4.57;2.40;;;29.20;1.00;;;;;;5059698;28;20207;-64
2022/09/04 07:34:56;;;;;;;2.95;2.35;;;28.90;1.00;;;;;;5009898;28;20884;-64
2022/09/04 07:37:42;;;;;;;8.25;2.65;;;29.70;1.00;;;;;;5061454;28;20257;-65
2022/09/04 07:40:23;;;;;;;3.63;2.13;;;29.50;1.00;;;;;;5063618;28;20198;-63
2022/09/04 07:43:12;;;;;;;4.25;2.45;;;28.30;1.00;;;;;;5063048;28;20673;-64
2022/09/04 07:45:50;;;;;;;2.75;2.28;;;28.80;1.00;;;;;;5060262;28;20617;-64
2022/09/04 07:48:31;;;;;;;2.45;2.20;;;29.90;1.00;;;;;;5070052;28;20222;-64
2022/09/04 07:51:09;;;;;;;5.85;2.63;;;32.20;1.00;;;;;;5079658;28;20213;-64
2022/09/04 07:54:11;;;;;;;2.85;2.20;;;31.60;1.00;;;;;;5063157;28;20190;-63
2022/09/04 07:57:00;;;;;;;2.38;2.00;;;30.90;1.00;;;;;;5066773;28;20190;-65
2022/09/04 07:59:52;;;;;;;5.22;2.00;;;30.80;1.00;;;;;;5062794;28;20298;-64
2022/09/04 08:02:30;;;;;;;2.85;2.17;;;35.70;1.00;;;;;;5086484;28;20186;-65
2022/09/04 08:04:57;;;;;;;4.38;2.33;;;34.00;1.00;;;;;;5069126;28;20740;-64
2022/09/04 08:07:36;;;;;;;2.65;2.00;;;35.10;1.00;;;;;;5083003;28;20205;-64
2022/09/04 08:10:25;;;;;;;3.25;2.05;;;36.30;1.00;;;;;;5084405;28;21186;-64
2022/09/04 08:13:34;;;;;;;3.78;2.00;;;34.10;1.00;;;;;;5064370;28;20301;-64
2022/09/04 08:16:21;;;;;;;2.30;1.90;;;39.60;1.00;;;;;;5066347;28;20218;-65
2022/09/04 08:18:51;;;;;;;4.65;2.00;;;35.80;1.00;;;;;;5064832;28;20202;-64
2022/09/04 08:21:36;;;;;;;3.65;2.03;;;32.30;1.00;;;;;;5059482;28;20187;-65
2022/09/04 08:24:35;;;;;;;4.70;2.10;;;36.30;1.00;;;;;;5064349;28;20214;-65
2022/09/04 08:27:08;;;;;;;2.30;2.03;;;35.80;1.00;;;;;;5074317;28;20672;-65
2022/09/04 08:30:08;;;;;;;2.05;1.60;;;38.60;1.00;;;;;;5064288;28;20205;-65
2022/09/04 08:32:53;;;;;;;2.13;1.77;;;41.70;1.00;;;;;;5042667;28;20259;-64
2022/09/04 08:35:45;;;;;;;2.72;1.83;;;41.20;1.00;;;;;;5079799;28;20699;-64
2022/09/04 08:38:44;;;;;;;2.63;1.77;;;42.80;1.00;;;;;;5079530;28;20201;-64
2022/09/04 08:41:35;;;;;;;3.22;1.75;;;44.30;1.00;;;;;;5060504;28;20675;-66
2022/09/04 08:44:25;;;;;;;5.55;1.42;;;44.50;1.00;;;;;;5083310;28;20259;-66
2022/09/04 08:47:20;;;;;;;2.30;1.60;;;44.90;1.00;;;;;;5083950;28;20846;-64
2022/09/04 08:50:17;;;;;;;3.50;1.60;;;46.30;1.00;;;;;;5081812;28;20205;-65
2022/09/04 08:53:08;;;;;;;3.63;1.95;;;42.60;1.00;;;;;;5059892;28;20221;-66
2022/09/04 08:55:48;;;;;;;2.28;1.80;;;42.60;1.00;;;;;;5067110;28;20193;-65
2022/09/04 08:58:33;;;;;;;2.17;1.80;;;44.10;1.00;;;;;;5070588;28;20233;-64
2022/09/04 09:01:15;;;;;;;2.88;1.95;;;44.20;1.00;;;;;;5079694;28;20201;-64
2022/09/04 09:04:06;;;;;;;2.67;1.88;;;42.10;1.00;;;;;;5062760;28;20273;-64
2022/09/04 09:06:53;;;;;;;4.75;3.30;;;40.60;1.00;;;;;;5088486;28;20253;-64
2022/09/04 09:10:00;;;;;;;5.03;3.38;;;41.40;1.00;;;;;;5063111;28;20202;-65
2022/09/04 09:13:05;;;;;;;2.92;2.10;;;45.10;1.00;;;;;;5077600;28;20217;-65
2022/09/04 09:16:12;;;;;;;1.50;1.40;;;44.80;1.00;;;;;;5079059;28;20280;-64
2022/09/04 09:19:01;;;;;;;2.05;1.67;;;45.90;1.00;;;;;;5066185;28;20232;-65
2022/09/04 09:21:56;;;;;;;4.68;2.63;;;46.70;1.00;;;;;;5066025;28;20248;-65
2022/09/04 09:25:05;;;;;;;2.55;1.80;;;43.30;1.00;;;;;;5059560;28;20255;-64
2022/09/04 09:27:54;;;;;;;2.53;2.20;;;43.60;1.00;;;;;;5052172;28;20295;-65
2022/09/04 09:30:23;;;;;;;4.15;1.85;;;42.80;1.00;;;;;;5062888;28;20700;-63
2022/09/04 09:33:34;;;;;;;3.75;1.88;;;42.10;1.00;;;;;;5081522;28;20271;-65
2022/09/04 09:36:34;;;;;;;1.75;1.65;;;42.50;1.00;;;;;;4967443;28;20555;-65
2022/09/04 09:39:04;;;;;;;2.60;1.70;;;41.60;1.00;;;;;;5079477;28;20597;-64
2022/09/04 09:41:40;;;;;;;2.95;1.63;;;44.10;1.00;;;;;;5061954;28;20605;-62
2022/09/04 09:44:19;;;;;;;3.28;1.80;;;43.00;1.00;;;;;;5081765;28;20217;-63
2022/09/04 09:47:10;;;;;;;2.25;1.90;;;37.50;1.00;;;;;;5044487;28;20201;-64
2022/09/04 09:49:50;;;;;;;2.50;2.00;;;37.40;1.00;;;;;;5079104;28;20276;-64
2022/09/04 09:52:45;;;;;;;3.20;1.83;;;40.60;1.00;;;;;;5080530;28;20279;-64
2022/09/04 09:55:37;;;;;;;3.35;1.40;;;44.50;1.00;;;;;;5083162;28;20194;-65
2022/09/04 09:58:39;;;;;;;1.60;1.50;;;45.10;1.00;;;;;;5084763;28;20185;-64
2022/09/04 10:01:20;;;;;;;1.90;1.50;;;38.50;1.00;;;;;;5082992;28;20197;-66
2022/09/04 10:04:27;;;;;;;1.35;1.25;;;34.80;1.00;;;;;;5087186;28;20198;-65
2022/09/04 10:07:14;;;;;;;2.25;1.48;;;39.80;1.00;;;;;;5042630;28;20202;-65
2022/09/04 10:09:50;;;;;;;2.20;1.40;;;39.60;1.00;;;;;;5056870;28;20619;-66
2022/09/04 10:12:52;;;;;;;2.58;1.40;;;42.10;1.00;;;;;;5079994;28;20210;-67
2022/09/04 10:15:57;;;;;;;2.03;1.52;;;43.90;1.00;;;;;;5020771;28;20836;-64
2022/09/04 10:18:42;;;;;;;1.67;1.20;;;42.60;1.00;;;;;;5085642;28;20189;-64
2022/09/04 10:21:24;;;;;;;1.85;1.45;;;43.50;1.00;;;;;;5066311;28;20227;-64
2022/09/04 10:24:28;;;;;;;1.55;1.38;;;39.50;1.00;;;;;;5072758;28;20668;-65
2022/09/04 10:27:22;;;;;;;1.73;1.35;;;39.70;1.00;;;;;;5074225;28;20204;-64
2022/09/04 10:30:05;;;;;;;2.22;1.60;;;40.10;1.00;;;;;;5060460;28;20190;-64
2022/09/04 10:33:03;;;;;;;1.83;1.60;;;38.00;1.00;;;;;;5060060;28;20385;-64
2022/09/04 10:35:56;;;;;;;2.70;1.45;;;36.00;1.00;;;;;;5064954;28;20586;-64
2022/09/04 10:41:59;;;;;;;2.28;1.75;;;33.50;1.00;;;;;;5085159;28;20667;-65
2022/09/04 10:44:57;;;;;;;1.55;1.38;;;34.70;1.00;;;;;;5047354;28;20291;-64
2022/09/04 10:47:51;;;;;;;1.58;1.40;;;37.90;1.00;;;;;;5082681;28;20641;-64
2022/09/04 10:51:15;;;;;;;2.83;1.70;;;38.00;1.00;;;;;;5065471;28;20209;-64
2022/09/04 10:54:20;;;;;;;1.65;1.50;;;39.00;1.00;;;;;;5003717;28;20196;-65
2022/09/04 10:57:03;;;;;;;6.78;1.60;;;39.80;1.00;;;;;;4977849;28;20723;-64
2022/09/04 10:59:36;;;;;;;2.50;1.65;;;37.40;1.00;;;;;;5082013;28;20190;-65
2022/09/04 11:02:41;;;;;;;2.45;1.60;;;36.20;1.00;;;;;;5063996;28;20249;-65
2022/09/04 11:05:30;;;;;;;2.45;1.50;;;34.30;1.00;;;;;;5079970;28;20648;-66
2022/09/04 11:08:15;;;;;;;4.72;1.50;;;38.20;1.00;;;;;;5066127;28;20236;-63
2022/09/04 11:11:08;;;;;;;2.03;1.70;;;38.30;1.00;;;;;;5058059;28;20190;-63
2022/09/04 11:13:49;;;;;;;8.43;1.80;;;39.10;1.00;;;;;;5080728;28;20266;-64
2022/09/04 11:16:23;;;;;;;2.15;1.75;;;38.70;1.00;;;;;;5079344;28;20276;-63
2022/09/04 11:19:02;;;;;;;2.00;1.80;;;35.80;1.00;;;;;;5068724;28;20272;-63
2022/09/04 11:21:48;;;;;;;4.03;2.03;;;34.30;1.00;;;;;;5073429;28;20288;-63
2022/09/04 11:24:34;;;;;;;2.22;2.03;;;33.60;1.00;;;;;;5085893;28;20217;-68
2022/09/04 11:27:44;;;;;;;2.20;1.83;;;35.90;1.00;;;;;;5056802;28;20246;-64
2022/09/04 11:30:30;;;;;;;4.40;2.20;;;36.70;1.00;;;;;;5083706;28;20208;-65
2022/09/04 11:33:21;;;;;;;2.78;2.08;;;34.50;1.00;;;;;;5083999;28;20598;-62
2022/09/04 11:36:13;;;;;;;2.13;1.92;;;34.50;1.00;;;;;;5085041;28;20182;-63
2022/09/04 11:38:54;;;;;;;2.08;1.88;;;35.60;1.00;;;;;;5084580;28;20182;-64
2022/09/04 11:41:44;;;;;;;3.83;1.92;;;37.20;1.00;;;;;;5065041;28;20229;-64
2022/09/04 11:44:36;;;;;;;2.92;1.95;;;39.80;1.00;;;;;;5048796;28;20250;-64
2022/09/04 11:47:29;;;;;;;2.65;2.13;;;40.40;1.00;;;;;;5082429;28;20221;-65
2022/09/04 11:50:30;;;;;;;3.40;2.15;;;40.30;1.00;;;;;;5034034;28;20673;-64
2022/09/04 11:53:00;;;;;;;2.85;2.08;;;39.70;1.00;;;;;;5063002;28;20680;-64
2022/09/04 11:55:42;;;;;;;2.70;2.05;;;39.60;1.00;;;;;;5063406;28;20201;-64
2022/09/04 11:58:36;;;;;;;2.92;1.77;;;39.00;1.00;;;;;;5063662;28;20279;-64
2022/09/04 12:01:30;;;;;;;4.75;1.90;;;38.20;1.00;;;;;;5081261;28;20194;-64
2022/09/04 12:04:00;;;;;;;3.55;1.90;;;36.90;1.00;;;;;;5062303;28;20493;-64
2022/09/04 12:06:42;;;;;;;2.85;1.92;;;37.70;1.00;;;;;;5082129;28;20644;-64
2022/09/04 12:09:21;;;;;;;5.00;2.15;;;36.60;1.00;;;;;;5082306;28;20279;-63
2022/09/04 12:12:04;;;;;;;1.95;1.85;;;33.80;1.00;;;;;;5083110;28;20589;-63
2022/09/04 12:14:59;;;;;;;3.30;1.90;;;33.00;1.00;;;;;;5052561;28;21136;-64
2022/09/04 12:18:00;;;;;;;2.35;1.90;;;31.70;1.00;;;;;;5052122;28;20194;-63
2022/09/04 12:21:02;;;;;;;2.28;1.70;;;33.30;1.00;;;;;;5068771;28;20194;-64
2022/09/04 12:23:47;;;;;;;4.28;2.03;;;34.60;1.00;;;;;;4998717;28;20213;-65
2022/09/04 12:26:26;;;;;;;2.55;2.33;;;35.30;1.00;;;;;;5077508;28;20720;-64
2022/09/04 12:29:17;;;;;;;2.40;2.20;;;35.40;1.00;;;;;;5083420;28;20202;-63
2022/09/04 12:32:21;;;;;;;2.70;2.30;;;34.00;1.00;;;;;;5084524;28;20596;-64
2022/09/04 12:35:09;;;;;;;3.05;2.13;;;33.80;1.00;;;;;;5083285;28;20194;-64
2022/09/04 12:37:52;;;;;;;2.90;2.28;;;34.20;1.00;;;;;;5060469;28;20776;-64
2022/09/04 12:41:03;;;;;;;2.20;2.00;;;34.60;1.00;;;;;;5068831;28;20324;-64
2022/09/04 12:43:51;;;;;;;4.75;2.75;;;34.60;1.00;;;;;;5083926;28;20202;-64
2022/09/04 12:46:49;;;;;;;3.42;2.65;;;34.20;1.00;;;;;;5063725;28;20668;-64
2022/09/04 12:49:57;;;;;;;2.83;2.25;;;33.90;1.00;;;;;;5086547;28;20241;-64
2022/09/04 12:52:49;;;;;;;2.30;2.08;;;33.30;1.00;;;;;;5086924;28;20201;-64
2022/09/04 12:55:36;;;;;;;3.63;2.33;;;32.70;1.00;;;;;;5053106;28;20187;-63
2022/09/04 12:58:20;;;;;;;2.25;2.05;;;32.70;1.00;;;;;;5069232;28;20213;-64
2022/09/04 13:01:09;;;;;;;3.47;2.30;;;33.20;1.00;;;;;;5089904;28;20198;-69
2022/09/04 13:03:49;;;;;;;2.50;2.30;;;33.00;1.00;;;;;;5071106;28;20248;-64
2022/09/04 13:06:55;;;;;;;2.58;2.28;;;32.70;1.00;;;;;;5083537;28;20190;-63
2022/09/04 13:09:53;;;;;;;8.77;2.30;;;32.70;1.00;;;;;;5085582;28;20186;-63
2022/09/04 13:12:40;;;;;;;3.22;2.08;;;33.00;1.00;;;;;;5066534;28;20214;-63
2022/09/04 13:15:40;;;;;;;3.55;2.00;;;33.10;1.00;;;;;;5062869;28;20218;-64
2022/09/04 13:18:20;;;;;;;2.30;2.10;;;33.00;1.00;;;;;;5069529;28;20195;-64
2022/09/04 13:21:24;;;;;;;2.80;2.60;;;32.80;1.00;;;;;;5082938;28;20194;-64
2022/09/04 13:24:10;;;;;;;2.85;2.05;;;32.60;1.00;;;;;;5070269;28;20201;-64
2022/09/04 13:27:25;;;;;;;2.80;2.40;;;32.30;1.00;;;;;;5063477;28;20715;-63
2022/09/04 13:30:24;;;;;;;3.20;2.47;;;32.20;1.00;;;;;;5044522;28;20661;-64
2022/09/04 13:33:16;;;;;;;4.50;2.83;;;31.70;1.00;;;;;;5049394;28;20222;-64
2022/09/04 13:36:09;;;;;;;3.13;2.65;;;31.50;1.00;;;;;;5069997;28;20206;-64
2022/09/04 13:39:00;;;;;;;3.65;3.35;;;31.60;1.00;;;;;;5066213;28;20198;-64
2022/09/04 13:41:52;;;;;;;4.25;3.17;;;31.50;1.00;;;;;;5086922;28;20194;-63
2022/09/04 13:44:22;;;;;;;5.18;3.13;;;31.30;1.00;;;;;;5064522;28;20239;-63
2022/09/04 13:46:59;;;;;;;2.45;2.22;;;31.00;1.00;;;;;;5085931;28;20229;-65
2022/09/04 13:49:34;;;;;;;4.53;3.35;;;30.90;1.00;;;;;;5064213;28;20293;-63
2022/09/04 13:52:09;;;;;;;3.00;2.58;;;30.90;1.00;;;;;;5068287;28;20194;-64
2022/09/04 13:54:45;;;;;;;3.60;2.80;;;30.90;1.00;;;;;;5051353;28;20198;-67
2022/09/04 13:57:25;;;;;;;4.88;2.78;;;30.80;1.00;;;;;;5041735;28;20197;-64
2022/09/04 13:59:55;;;;;;;2.80;2.50;;;30.60;1.00;;;;;;5064648;28;20190;-63
2022/09/04 14:02:25;;;;;;;3.00;2.30;;;30.60;1.00;;;;;;5047603;28;20776;-63
2022/09/04 14:05:03;;;;;;;2.70;2.50;;;30.50;1.00;;;;;;5070540;28;20253;-63
2022/09/04 14:07:38;;;;;;;3.10;2.40;;;30.20;1.00;;;;;;5046988;28;20218;-63
2022/09/04 14:10:24;;;;;;;3.53;2.20;;;29.90;1.00;;;;;;5063390;28;20203;-64
2022/09/04 14:12:54;;;;;;;3.25;2.53;;;29.80;1.00;;;;;;5049127;28;20219;-63
2022/09/04 14:15:33;;;;;;;3.60;2.20;;;29.60;1.00;;;;;;5054564;28;20314;-63
2022/09/04 14:18:29;;;;;;;5.95;2.60;;;29.80;1.00;;;;;;5047470;28;20199;-63
2022/09/04 14:21:36;;;;;;;3.20;2.35;;;29.80;1.00;;;;;;5066738;28;20198;-64
2022/09/04 14:24:33;;;;;;;5.13;2.55;;;30.10;1.00;;;;;;5026661;28;20293;-68
2022/09/04 14:27:31;;;;;;;4.43;2.95;;;30.70;1.00;;;;;;5041024;28;20202;-64
2022/09/04 14:29:58;;;;;;;4.07;2.63;;;30.80;1.00;;;;;;5027159;28;20710;-66
2022/09/04 14:32:56;;;;;;;4.15;2.40;;;30.80;1.00;;;;;;5044533;28;20222;-66
2022/09/04 14:35:51;;;;;;;2.47;2.28;;;30.90;1.00;;;;;;5065009;28;20187;-66
2022/09/04 14:38:53;;;;;;;3.63;2.75;;;31.10;1.00;;;;;;5042427;28;20233;-66
2022/09/04 14:41:29;;;;;;;4.82;4.03;;;31.20;1.00;;;;;;5026592;28;20753;-66
2022/09/04 14:44:25;;;;;;;2.97;2.30;;;31.10;1.00;;;;;;5056806;28;20690;-66
2022/09/04 14:47:35;;;;;;;10.48;5.93;;;31.00;1.00;;;;;;5065113;28;20194;-66
2022/09/04 14:50:08;;;;;;;2.95;2.65;;;30.10;1.00;;;;;;5083280;28;20209;-66